sensor_id;sensor_type;location;lat;lon;timestamp;pressure;altitude;pressure_sealevel;temperature;humidity
64064;BME280;50314;50.618;10.642;2023-02-10T00:00:03;98330.00;;;13.04;22.43
64064;BME280;50314;50.618;10.642;2023-02-10T00:02:29;98329.25;;;13.02;22.26
64064;BME280;50314;50.618;10.642;2023-02-10T00:04:55;98331.97;;;13.00;22.25
64064;BME280;50314;50.618;10.642;2023-02-10T00:07:20;98347.94;;;12.99;22.22
64064;BME280;50314;50.618;10.642;2023-02-10T00:09:46;98348.88;;;12.98;22.39
64064;BME280;50314;50.618;10.642;2023-02-10T00:12:11;98355.09;;;12.97;22.44
64064;BME280;50314;50.618;10.642;2023-02-10T00:14:37;98347.16;;;12.97;22.38
64064;BME280;50314;50.618;10.642;2023-02-10T00:17:03;98345.56;;;12.94;22.35
64064;BME280;50314;50.618;10.642;2023-02-10T00:19:29;98348.22;;;12.94;22.20
64064;BME280;50314;50.618;10.642;2023-02-10T00:21:57;98346.47;;;12.93;22.36
64064;BME280;50314;50.618;10.642;2023-02-10T00:24:22;98349.31;;;12.90;22.28
64064;BME280;50314;50.618;10.642;2023-02-10T00:26:48;98353.75;;;12.89;22.40
64064;BME280;50314;50.618;10.642;2023-02-10T00:29:13;98356.50;;;12.88;22.43
64064;BME280;50314;50.618;10.642;2023-02-10T00:31:40;98354.78;;;12.87;22.20
64064;BME280;50314;50.618;10.642;2023-02-10T00:34:06;98363.66;;;12.86;22.24
64064;BME280;50314;50.618;10.642;2023-02-10T00:36:31;98362.78;;;12.85;22.18
64064;BME280;50314;50.618;10.642;2023-02-10T00:38:57;98359.47;;;12.82;22.43
64064;BME280;50314;50.618;10.642;2023-02-10T00:41:23;98359.47;;;12.82;22.26
64064;BME280;50314;50.618;10.642;2023-02-10T00:43:51;98367.59;;;12.79;22.26
64064;BME280;50314;50.618;10.642;2023-02-10T00:46:18;98379.09;;;12.78;22.41
64064;BME280;50314;50.618;10.642;2023-02-10T00:48:46;98375.69;;;12.76;22.38
64064;BME280;50314;50.618;10.642;2023-02-10T00:51:12;98370.56;;;12.73;22.37
64064;BME280;50314;50.618;10.642;2023-02-10T00:53:38;98375.94;;;12.71;22.33
64064;BME280;50314;50.618;10.642;2023-02-10T00:56:04;98382.25;;;12.68;22.42
64064;BME280;50314;50.618;10.642;2023-02-10T00:58:30;98374.50;;;12.65;22.46
64064;BME280;50314;50.618;10.642;2023-02-10T01:00:55;98375.44;;;12.64;22.42
64064;BME280;50314;50.618;10.642;2023-02-10T01:03:21;98373.91;;;12.60;22.48
64064;BME280;50314;50.618;10.642;2023-02-10T01:05:47;98364.34;;;12.58;22.41
64064;BME280;50314;50.618;10.642;2023-02-10T01:08:13;98370.59;;;12.57;22.68
64064;BME280;50314;50.618;10.642;2023-02-10T01:10:39;98375.09;;;12.55;22.56
64064;BME280;50314;50.618;10.642;2023-02-10T01:13:06;98367.16;;;12.55;22.51
64064;BME280;50314;50.618;10.642;2023-02-10T01:15:32;98369.91;;;12.53;22.44
64064;BME280;50314;50.618;10.642;2023-02-10T01:17:58;98362.16;;;12.50;22.38
64064;BME280;50314;50.618;10.642;2023-02-10T01:20:24;98371.09;;;12.48;22.47
64064;BME280;50314;50.618;10.642;2023-02-10T01:22:49;98371.16;;;12.46;22.47
64064;BME280;50314;50.618;10.642;2023-02-10T01:25:15;98372.09;;;12.45;22.47
64064;BME280;50314;50.618;10.642;2023-02-10T01:27:40;98366.81;;;12.45;22.49
64064;BME280;50314;50.618;10.642;2023-02-10T01:30:06;98369.47;;;12.45;22.41
64064;BME280;50314;50.618;10.642;2023-02-10T01:32:32;98372.09;;;12.45;22.46
64064;BME280;50314;50.618;10.642;2023-02-10T01:34:57;98379.25;;;12.43;22.47
64064;BME280;50314;50.618;10.642;2023-02-10T01:37:23;98382.84;;;12.42;22.41
64064;BME280;50314;50.618;10.642;2023-02-10T01:39:48;98378.56;;;12.39;22.45
64064;BME280;50314;50.618;10.642;2023-02-10T01:42:15;98381.41;;;12.36;22.42
64064;BME280;50314;50.618;10.642;2023-02-10T01:47:08;98392.09;;;12.33;22.42
64064;BME280;50314;50.618;10.642;2023-02-10T01:49:38;98391.41;;;12.30;22.53
64064;BME280;50314;50.618;10.642;2023-02-10T01:52:11;98399.50;;;12.27;22.50
64064;BME280;50314;50.618;10.642;2023-02-10T01:54:52;98398.63;;;12.26;22.47
64064;BME280;50314;50.618;10.642;2023-02-10T01:57:20;98401.38;;;12.25;22.47
64064;BME280;50314;50.618;10.642;2023-02-10T01:59:47;98399.66;;;12.23;22.48
64064;BME280;50314;50.618;10.642;2023-02-10T02:02:13;98397.03;;;12.23;22.37
64064;BME280;50314;50.618;10.642;2023-02-10T02:04:50;98394.56;;;12.20;22.65
64064;BME280;50314;50.618;10.642;2023-02-10T02:07:19;98394.44;;;12.22;22.41
64064;BME280;50314;50.618;10.642;2023-02-10T02:09:45;98395.41;;;12.21;22.45
64064;BME280;50314;50.618;10.642;2023-02-10T02:15:03;98394.88;;;12.14;22.53
64064;BME280;50314;50.618;10.642;2023-02-10T02:17:39;98396.66;;;12.14;22.57
64064;BME280;50314;50.618;10.642;2023-02-10T02:23:20;98398.47;;;12.13;22.53
64064;BME280;50314;50.618;10.642;2023-02-10T02:34:36;98401.56;;;12.04;22.61
64064;BME280;50314;50.618;10.642;2023-02-10T02:37:17;98398.09;;;12.04;22.44
64064;BME280;50314;50.618;10.642;2023-02-10T02:39:43;98394.75;;;12.00;22.69
64064;BME280;50314;50.618;10.642;2023-02-10T02:42:16;98397.16;;;12.05;22.56
64064;BME280;50314;50.618;10.642;2023-02-10T02:44:51;98395.28;;;12.07;22.37
64064;BME280;50314;50.618;10.642;2023-02-10T02:52:31;98400.41;;;12.10;22.62
64064;BME280;50314;50.618;10.642;2023-02-10T03:01:29;98394.59;;;12.03;22.73
64064;BME280;50314;50.618;10.642;2023-02-10T03:03:57;98395.19;;;12.08;22.46
64064;BME280;50314;50.618;10.642;2023-02-10T03:06:24;98395.97;;;12.10;22.43
64064;BME280;50314;50.618;10.642;2023-02-10T03:08:49;98388.91;;;12.11;22.53
64064;BME280;50314;50.618;10.642;2023-02-10T03:11:15;98385.31;;;12.12;22.58
64064;BME280;50314;50.618;10.642;2023-02-10T03:13:40;98386.16;;;12.12;22.59
64064;BME280;50314;50.618;10.642;2023-02-10T03:16:06;98382.59;;;12.13;22.57
64064;BME280;50314;50.618;10.642;2023-02-10T03:18:31;98380.88;;;12.12;22.52
64064;BME280;50314;50.618;10.642;2023-02-10T03:20:57;98383.53;;;12.12;22.68
64064;BME280;50314;50.618;10.642;2023-02-10T03:23:22;98391.44;;;12.12;22.69
64064;BME280;50314;50.618;10.642;2023-02-10T03:25:48;98394.09;;;12.12;22.63
64064;BME280;50314;50.618;10.642;2023-02-10T03:28:13;98388.75;;;12.14;22.55
64064;BME280;50314;50.618;10.642;2023-02-10T03:30:39;98386.94;;;12.14;22.57
64064;BME280;50314;50.618;10.642;2023-02-10T03:33:11;98396.56;;;12.15;22.53
64064;BME280;50314;50.618;10.642;2023-02-10T03:35:37;98400.06;;;12.16;22.65
64064;BME280;50314;50.618;10.642;2023-02-10T03:38:04;98402.63;;;12.17;22.48
64064;BME280;50314;50.618;10.642;2023-02-10T03:40:29;98394.72;;;12.17;22.61
64064;BME280;50314;50.618;10.642;2023-02-10T03:42:55;98392.06;;;12.17;22.58
64064;BME280;50314;50.618;10.642;2023-02-10T03:45:20;98400.94;;;12.16;22.62
64064;BME280;50314;50.618;10.642;2023-02-10T03:47:46;98397.41;;;12.16;22.69
64064;BME280;50314;50.618;10.642;2023-02-10T03:50:11;98408.88;;;12.16;22.54
64064;BME280;50314;50.618;10.642;2023-02-10T03:52:36;98414.06;;;12.18;22.65
64064;BME280;50314;50.618;10.642;2023-02-10T03:55:02;98406.97;;;12.18;22.67
64064;BME280;50314;50.618;10.642;2023-02-10T03:57:27;98400.84;;;12.18;22.59
64064;BME280;50314;50.618;10.642;2023-02-10T03:59:53;98407.75;;;12.20;22.56
64064;BME280;50314;50.618;10.642;2023-02-10T04:02:18;98411.34;;;12.19;22.56
64064;BME280;50314;50.618;10.642;2023-02-10T04:04:44;98416.63;;;12.19;22.67
64064;BME280;50314;50.618;10.642;2023-02-10T04:07:09;98429.84;;;12.19;22.60
64064;BME280;50314;50.618;10.642;2023-02-10T04:09:35;98432.47;;;12.19;22.67
64064;BME280;50314;50.618;10.642;2023-02-10T04:12:00;98439.53;;;12.19;22.58
64064;BME280;50314;50.618;10.642;2023-02-10T04:14:26;98436.81;;;12.20;22.74
64064;BME280;50314;50.618;10.642;2023-02-10T04:16:51;98432.47;;;12.19;22.64
64064;BME280;50314;50.618;10.642;2023-02-10T04:19:17;98442.09;;;12.20;22.65
64064;BME280;50314;50.618;10.642;2023-02-10T04:21:43;98432.38;;;12.21;22.61
64064;BME280;50314;50.618;10.642;2023-02-10T04:24:08;98438.50;;;12.21;22.74
64064;BME280;50314;50.618;10.642;2023-02-10T04:26:34;98433.22;;;12.21;22.77
64064;BME280;50314;50.618;10.642;2023-02-10T04:28:59;98437.66;;;12.21;22.78
64064;BME280;50314;50.618;10.642;2023-02-10T04:31:24;98443.78;;;12.21;22.68
64064;BME280;50314;50.618;10.642;2023-02-10T04:33:50;98442.94;;;12.21;22.73
64064;BME280;50314;50.618;10.642;2023-02-10T04:36:16;98447.38;;;12.20;22.72
64064;BME280;50314;50.618;10.642;2023-02-10T04:38:41;98444.75;;;12.20;22.67
64064;BME280;50314;50.618;10.642;2023-02-10T04:41:07;98443.78;;;12.21;22.74
64064;BME280;50314;50.618;10.642;2023-02-10T04:43:33;98444.75;;;12.20;22.76
64064;BME280;50314;50.618;10.642;2023-02-10T04:45:58;98446.44;;;12.21;22.62
64064;BME280;50314;50.618;10.642;2023-02-10T04:48:24;98447.28;;;12.22;22.90
64064;BME280;50314;50.618;10.642;2023-02-10T04:50:49;98448.13;;;12.22;22.73
64064;BME280;50314;50.618;10.642;2023-02-10T04:53:15;98439.34;;;12.22;22.69
64064;BME280;50314;50.618;10.642;2023-02-10T04:55:40;98447.22;;;12.23;22.55
64064;BME280;50314;50.618;10.642;2023-02-10T04:58:06;98448.06;;;12.24;22.78
64064;BME280;50314;50.618;10.642;2023-02-10T05:00:32;98448.91;;;12.25;22.76
64064;BME280;50314;50.618;10.642;2023-02-10T05:02:58;98455.91;;;12.26;22.70
64064;BME280;50314;50.618;10.642;2023-02-10T05:05:24;98460.28;;;12.27;22.69
64064;BME280;50314;50.618;10.642;2023-02-10T05:07:51;98455.91;;;12.26;22.68
64064;BME280;50314;50.618;10.642;2023-02-10T05:10:17;98466.47;;;12.26;22.81
64064;BME280;50314;50.618;10.642;2023-02-10T05:12:42;98466.47;;;12.26;22.68
64064;BME280;50314;50.618;10.642;2023-02-10T05:15:08;98463.75;;;12.27;22.74
64064;BME280;50314;50.618;10.642;2023-02-10T05:17:34;98461.19;;;12.26;22.80
64064;BME280;50314;50.618;10.642;2023-02-10T05:19:59;98465.63;;;12.25;22.81
64064;BME280;50314;50.618;10.642;2023-02-10T05:22:25;98464.78;;;12.25;22.87
64064;BME280;50314;50.618;10.642;2023-02-10T05:24:55;98461.19;;;12.26;22.88
64064;BME280;50314;50.618;10.642;2023-02-10T05:27:25;98467.31;;;12.26;22.83
64064;BME280;50314;50.618;10.642;2023-02-10T05:29:50;98464.69;;;12.26;22.86
64064;BME280;50314;50.618;10.642;2023-02-10T05:32:16;98464.63;;;12.28;22.70
64064;BME280;50314;50.618;10.642;2023-02-10T05:34:41;98465.47;;;12.28;22.65
64064;BME280;50314;50.618;10.642;2023-02-10T05:48:46;98467.41;;;12.25;23.01
64064;BME280;50314;50.618;10.642;2023-02-10T05:51:11;98457.47;;;12.30;22.96
64064;BME280;50314;50.618;10.642;2023-02-10T05:53:37;98460.88;;;12.32;22.89
64064;BME280;50314;50.618;10.642;2023-02-10T05:56:02;98460.75;;;12.35;22.71
64064;BME280;50314;50.618;10.642;2023-02-10T05:58:28;98455.38;;;12.36;22.87
64064;BME280;50314;50.618;10.642;2023-02-10T06:00:58;98450.84;;;12.38;22.82
64064;BME280;50314;50.618;10.642;2023-02-10T06:03:23;98461.38;;;12.40;22.79
64064;BME280;50314;50.618;10.642;2023-02-10T06:05:49;98456.06;;;12.40;22.66
64064;BME280;50314;50.618;10.642;2023-02-10T06:08:14;98460.41;;;12.41;22.67
64064;BME280;50314;50.618;10.642;2023-02-10T06:10:39;98462.13;;;12.42;22.72
64064;BME280;50314;50.618;10.642;2023-02-10T06:13:05;98475.31;;;12.42;22.78
64064;BME280;50314;50.618;10.642;2023-02-10T06:15:31;98473.53;;;12.42;22.65
64064;BME280;50314;50.618;10.642;2023-02-10T06:17:56;98480.59;;;12.42;22.73
64064;BME280;50314;50.618;10.642;2023-02-10T06:20:22;98485.06;;;12.41;22.77
64064;BME280;50314;50.618;10.642;2023-02-10T06:22:47;98486.84;;;12.41;22.68
64064;BME280;50314;50.618;10.642;2023-02-10T06:25:13;98492.13;;;12.41;22.73
64064;BME280;50314;50.618;10.642;2023-02-10T06:27:38;98486.91;;;12.39;22.86
64064;BME280;50314;50.618;10.642;2023-02-10T06:30:04;98495.72;;;12.40;22.84
64064;BME280;50314;50.618;10.642;2023-02-10T06:32:29;98502.69;;;12.41;22.79
64064;BME280;50314;50.618;10.642;2023-02-10T06:34:55;98498.34;;;12.40;22.71
64064;BME280;50314;50.618;10.642;2023-02-10T06:37:20;98500.06;;;12.41;22.75
64064;BME280;50314;50.618;10.642;2023-02-10T06:39:46;98499.28;;;12.39;22.76
64064;BME280;50314;50.618;10.642;2023-02-10T06:42:11;98501.00;;;12.40;22.79
64064;BME280;50314;50.618;10.642;2023-02-10T06:44:37;98492.13;;;12.41;22.78
64064;BME280;50314;50.618;10.642;2023-02-10T06:47:02;98493.06;;;12.40;22.84
64064;BME280;50314;50.618;10.642;2023-02-10T06:49:27;98486.91;;;12.39;22.85
64064;BME280;50314;50.618;10.642;2023-02-10T06:51:53;98490.44;;;12.40;22.85
64064;BME280;50314;50.618;10.642;2023-02-10T06:54:20;98499.13;;;12.42;22.63
64064;BME280;50314;50.618;10.642;2023-02-10T06:56:46;98492.97;;;12.41;22.91
64064;BME280;50314;50.618;10.642;2023-02-10T06:59:12;98497.31;;;12.42;22.86
64064;BME280;50314;50.618;10.642;2023-02-10T07:01:37;98506.09;;;12.43;22.81
64064;BME280;50314;50.618;10.642;2023-02-10T07:04:03;98513.25;;;12.41;22.92
64064;BME280;50314;50.618;10.642;2023-02-10T07:06:29;98515.06;;;12.40;22.71
64064;BME280;50314;50.618;10.642;2023-02-10T07:08:54;98515.13;;;12.39;22.81
64064;BME280;50314;50.618;10.642;2023-02-10T07:11:19;98509.84;;;12.39;22.79
64064;BME280;50314;50.618;10.642;2023-02-10T07:13:45;98516.91;;;12.38;22.80
64064;BME280;50314;50.618;10.642;2023-02-10T07:16:10;98518.72;;;12.38;22.76
64064;BME280;50314;50.618;10.642;2023-02-10T07:18:40;98520.56;;;12.36;22.76
64064;BME280;50314;50.618;10.642;2023-02-10T07:21:05;98520.56;;;12.36;22.71
64064;BME280;50314;50.618;10.642;2023-02-10T07:23:30;98523.22;;;12.36;22.71
64064;BME280;50314;50.618;10.642;2023-02-10T07:25:56;98524.09;;;12.36;22.83
64064;BME280;50314;50.618;10.642;2023-02-10T07:28:22;98527.66;;;12.35;22.81
64064;BME280;50314;50.618;10.642;2023-02-10T07:30:47;98521.44;;;12.36;22.79
64064;BME280;50314;50.618;10.642;2023-02-10T07:33:12;98517.91;;;12.36;22.78
64064;BME280;50314;50.618;10.642;2023-02-10T07:35:38;98521.50;;;12.35;22.67
64064;BME280;50314;50.618;10.642;2023-02-10T07:38:03;98530.28;;;12.35;22.71
64064;BME280;50314;50.618;10.642;2023-02-10T07:40:29;98537.31;;;12.36;22.69
64064;BME280;50314;50.618;10.642;2023-02-10T07:42:56;98542.59;;;12.36;22.67
64064;BME280;50314;50.618;10.642;2023-02-10T07:45:22;98537.31;;;12.36;22.83
64064;BME280;50314;50.618;10.642;2023-02-10T07:47:47;98541.72;;;12.36;22.76
64064;BME280;50314;50.618;10.642;2023-02-10T07:50:13;98541.72;;;12.36;22.66
64064;BME280;50314;50.618;10.642;2023-02-10T07:52:38;98543.44;;;12.37;22.75
64064;BME280;50314;50.618;10.642;2023-02-10T07:55:06;98547.00;;;12.36;22.77
64064;BME280;50314;50.618;10.642;2023-02-10T07:57:32;98545.22;;;12.36;22.69
64064;BME280;50314;50.618;10.642;2023-02-10T07:59:58;98551.38;;;12.37;22.78
64064;BME280;50314;50.618;10.642;2023-02-10T08:02:23;98554.00;;;12.37;22.72
64064;BME280;50314;50.618;10.642;2023-02-10T08:04:49;98566.28;;;12.38;22.58
64064;BME280;50314;50.618;10.642;2023-02-10T08:07:17;98564.47;;;12.38;22.63
64064;BME280;50314;50.618;10.642;2023-02-10T08:09:42;98566.28;;;12.38;22.68
64064;BME280;50314;50.618;10.642;2023-02-10T08:12:08;98569.75;;;12.38;22.69
64064;BME280;50314;50.618;10.642;2023-02-10T08:14:33;98566.28;;;12.38;22.72
64064;BME280;50314;50.618;10.642;2023-02-10T08:16:59;98562.69;;;12.39;22.67
64064;BME280;50314;50.618;10.642;2023-02-10T08:19:24;98567.97;;;12.39;22.70
64064;BME280;50314;50.618;10.642;2023-02-10T08:21:50;98564.41;;;12.40;22.79
64064;BME280;50314;50.618;10.642;2023-02-10T08:24:15;98572.34;;;12.40;22.81
64064;BME280;50314;50.618;10.642;2023-02-10T08:26:41;98578.38;;;12.42;22.74
64064;BME280;50314;50.618;10.642;2023-02-10T08:29:07;98578.38;;;12.42;22.77
64064;BME280;50314;50.618;10.642;2023-02-10T08:31:32;98585.47;;;12.41;22.93
64064;BME280;50314;50.618;10.642;2023-02-10T08:33:58;98584.53;;;12.42;22.91
64064;BME280;50314;50.618;10.642;2023-02-10T08:36:23;98579.22;;;12.42;22.84
64064;BME280;50314;50.618;10.642;2023-02-10T08:38:50;98582.81;;;12.41;22.78
64064;BME280;50314;50.618;10.642;2023-02-10T08:41:17;98579.19;;;12.44;23.10
64064;BME280;50314;50.618;10.642;2023-02-10T08:43:43;98585.22;;;12.46;23.04
64064;BME280;50314;50.618;10.642;2023-02-10T08:46:09;98585.06;;;12.49;23.13
64064;BME280;50314;50.618;10.642;2023-02-10T08:48:34;98585.84;;;12.51;23.33
64064;BME280;50314;50.618;10.642;2023-02-10T08:51:00;98591.03;;;12.53;23.37
64064;BME280;50314;50.618;10.642;2023-02-10T08:53:26;98589.19;;;12.55;23.59
64064;BME280;50314;50.618;10.642;2023-02-10T08:55:59;98592.69;;;12.55;23.69
64064;BME280;50314;50.618;10.642;2023-02-10T08:58:25;98589.03;;;12.58;23.60
64064;BME280;50314;50.618;10.642;2023-02-10T09:00:51;98587.13;;;12.60;23.64
64064;BME280;50314;50.618;10.642;2023-02-10T09:03:16;98583.59;;;12.61;23.63
64064;BME280;50314;50.618;10.642;2023-02-10T09:05:42;98590.56;;;12.62;23.73
64064;BME280;50314;50.618;10.642;2023-02-10T09:08:11;98578.13;;;12.64;23.84
64064;BME280;50314;50.618;10.642;2023-02-10T09:10:39;98585.13;;;12.65;23.96
64064;BME280;50314;50.618;10.642;2023-02-10T09:13:04;98582.38;;;12.66;23.84
64064;BME280;50314;50.618;10.642;2023-02-10T09:15:30;98591.09;;;12.68;23.95
64064;BME280;50314;50.618;10.642;2023-02-10T09:17:55;98593.69;;;12.70;23.84
64064;BME280;50314;50.618;10.642;2023-02-10T09:20:21;98590.00;;;12.73;23.72
64064;BME280;50314;50.618;10.642;2023-02-10T09:22:46;98595.13;;;12.76;23.76
64064;BME280;50314;50.618;10.642;2023-02-10T09:25:13;98589.84;;;12.76;23.83
64064;BME280;50314;50.618;10.642;2023-02-10T09:27:39;98603.00;;;12.77;23.86
64064;BME280;50314;50.618;10.642;2023-02-10T09:30:04;98597.63;;;12.79;23.71
64064;BME280;50314;50.618;10.642;2023-02-10T09:32:30;98601.09;;;12.79;23.78
64064;BME280;50314;50.618;10.642;2023-02-10T09:34:55;98608.03;;;12.82;23.65
64064;BME280;50314;50.618;10.642;2023-02-10T09:37:22;98604.44;;;12.83;23.71
64064;BME280;50314;50.618;10.642;2023-02-10T09:39:48;98593.81;;;12.84;23.73
64064;BME280;50314;50.618;10.642;2023-02-10T09:42:34;98598.41;;;12.81;23.91
64064;BME280;50314;50.618;10.642;2023-02-10T09:45:15;98600.94;;;12.82;23.90
64064;BME280;50314;50.618;10.642;2023-02-10T09:47:51;98609.56;;;12.86;23.94
64064;BME280;50314;50.618;10.642;2023-02-10T09:55:37;98612.00;;;12.90;23.79
64064;BME280;50314;50.618;10.642;2023-02-10T09:59:03;98612.84;;;12.91;23.72
64064;BME280;50314;50.618;10.642;2023-02-10T10:03:52;98609.94;;;12.96;23.82
64064;BME280;50314;50.618;10.642;2023-02-10T10:06:27;98608.94;;;12.98;23.61
64064;BME280;50314;50.618;10.642;2023-02-10T10:14:04;98614.66;;;13.06;23.67
64064;BME280;50314;50.618;10.642;2023-02-10T10:17:19;98618.31;;;13.04;23.60
64064;BME280;50314;50.618;10.642;2023-02-10T10:28:42;98613.47;;;13.12;23.49
64064;BME280;50314;50.618;10.642;2023-02-10T10:31:44;98608.81;;;13.17;23.51
64064;BME280;50314;50.618;10.642;2023-02-10T10:34:16;98604.47;;;13.16;23.48
64064;BME280;50314;50.618;10.642;2023-02-10T10:36:45;98608.47;;;13.23;23.64
64064;BME280;50314;50.618;10.642;2023-02-10T10:41:54;98599.38;;;13.29;23.38
64064;BME280;50314;50.618;10.642;2023-02-10T10:44:21;98594.75;;;13.32;23.39
64064;BME280;50314;50.618;10.642;2023-02-10T10:47:09;98595.53;;;13.34;23.68
64064;BME280;50314;50.618;10.642;2023-02-10T10:49:36;98594.41;;;13.38;23.32
64064;BME280;50314;50.618;10.642;2023-02-10T10:54:44;98587.00;;;13.45;23.46
64064;BME280;50314;50.618;10.642;2023-02-10T10:57:12;98589.53;;;13.47;23.48
64064;BME280;50314;50.618;10.642;2023-02-10T10:59:43;98577.94;;;13.49;23.62
64064;BME280;50314;50.618;10.642;2023-02-10T11:02:16;98578.63;;;13.53;23.46
64064;BME280;50314;50.618;10.642;2023-02-10T11:04:42;98578.44;;;13.56;23.34
64064;BME280;50314;50.618;10.642;2023-02-10T11:07:12;98572.13;;;13.58;23.62
64064;BME280;50314;50.618;10.642;2023-02-10T11:09:52;98579.22;;;13.58;23.40
64064;BME280;50314;50.618;10.642;2023-02-10T11:12:23;98576.31;;;13.62;23.35
64064;BME280;50314;50.618;10.642;2023-02-10T11:14:51;98576.13;;;13.66;23.36
64064;BME280;50314;50.618;10.642;2023-02-10T11:17:35;98571.59;;;13.68;23.38
64064;BME280;50314;50.618;10.642;2023-02-10T11:20:27;98562.63;;;13.70;23.47
64064;BME280;50314;50.618;10.642;2023-02-10T11:22:58;98568.53;;;13.75;23.56
64064;BME280;50314;50.618;10.642;2023-02-10T11:25:31;98569.03;;;13.82;23.70
64064;BME280;50314;50.618;10.642;2023-02-10T11:27:58;98555.41;;;13.88;23.45
64064;BME280;50314;50.618;10.642;2023-02-10T11:30:28;98561.34;;;13.93;23.51
64064;BME280;50314;50.618;10.642;2023-02-10T11:32:54;98562.00;;;13.97;23.56
64064;BME280;50314;50.618;10.642;2023-02-10T11:35:20;98563.53;;;14.01;23.83
64064;BME280;50314;50.618;10.642;2023-02-10T11:37:52;98561.66;;;14.03;23.41
64064;BME280;50314;50.618;10.642;2023-02-10T11:40:21;98560.44;;;14.08;23.51
64064;BME280;50314;50.618;10.642;2023-02-10T11:42:50;98551.25;;;14.14;23.50
64064;BME280;50314;50.618;10.642;2023-02-10T11:45:19;98549.28;;;14.18;23.57
64064;BME280;50314;50.618;10.642;2023-02-10T11:47:45;98549.22;;;14.19;23.50
64064;BME280;50314;50.618;10.642;2023-02-10T11:50:26;98554.50;;;14.19;23.15
64064;BME280;50314;50.618;10.642;2023-02-10T11:52:52;98545.31;;;14.25;23.23
64064;BME280;50314;50.618;10.642;2023-02-10T11:55:18;98551.41;;;14.27;23.19
64064;BME280;50314;50.618;10.642;2023-02-10T12:01:09;98550.25;;;14.31;23.14
64064;BME280;50314;50.618;10.642;2023-02-10T12:03:58;98547.59;;;14.31;23.21
64064;BME280;50314;50.618;10.642;2023-02-10T12:09:52;98548.88;;;14.40;23.41
64064;BME280;50314;50.618;10.642;2023-02-10T12:14:57;98547.25;;;14.51;23.18
64064;BME280;50314;50.618;10.642;2023-02-10T12:17:28;98538.94;;;14.57;23.39
64064;BME280;50314;50.618;10.642;2023-02-10T12:25:17;98530.59;;;14.64;22.90
64064;BME280;50314;50.618;10.642;2023-02-10T12:49:04;98524.75;;;14.87;22.71
64064;BME280;50314;50.618;10.642;2023-02-10T12:54:54;98531.88;;;14.87;22.79
64064;BME280;50314;50.618;10.642;2023-02-10T12:59:56;98521.72;;;14.93;22.51
64064;BME280;50314;50.618;10.642;2023-02-10T13:02:37;98524.94;;;14.98;22.74
64064;BME280;50314;50.618;10.642;2023-02-10T13:05:09;98521.44;;;14.98;22.68
64064;BME280;50314;50.618;10.642;2023-02-10T13:07:51;98523.22;;;14.97;22.40
64064;BME280;50314;50.618;10.642;2023-02-10T13:12:48;98530.03;;;15.01;22.54
64064;BME280;50314;50.618;10.642;2023-02-10T13:15:25;98531.06;;;14.99;22.47
64064;BME280;50314;50.618;10.642;2023-02-10T13:17:53;98521.88;;;15.04;22.33
64064;BME280;50314;50.618;10.642;2023-02-10T13:22:56;98516.59;;;15.04;22.57
64064;BME280;50314;50.618;10.642;2023-02-10T13:25:51;98519.72;;;14.97;22.55
64064;BME280;50314;50.618;10.642;2023-02-10T13:33:58;98521.72;;;14.93;22.20
64064;BME280;50314;50.618;10.642;2023-02-10T13:36:28;98529.50;;;14.96;22.24
64064;BME280;50314;50.618;10.642;2023-02-10T13:39:19;98528.72;;;14.94;22.26
64064;BME280;50314;50.618;10.642;2023-02-10T13:41:47;98526.63;;;14.99;22.59
64064;BME280;50314;50.618;10.642;2023-02-10T13:44:28;98517.16;;;14.95;22.17
64064;BME280;50314;50.618;10.642;2023-02-10T13:49:48;98520.00;;;14.92;22.48
64064;BME280;50314;50.618;10.642;2023-02-10T13:52:19;98517.16;;;14.95;22.26
64064;BME280;50314;50.618;10.642;2023-02-10T13:55:00;98512.03;;;14.92;22.58
64064;BME280;50314;50.618;10.642;2023-02-10T13:57:32;98518.97;;;14.95;22.58
64064;BME280;50314;50.618;10.642;2023-02-10T14:00:17;98515.66;;;14.91;22.29
64064;BME280;50314;50.618;10.642;2023-02-10T14:02:44;98520.78;;;14.94;21.97
64064;BME280;50314;50.618;10.642;2023-02-10T14:05:32;98519.06;;;14.93;22.07
64064;BME280;50314;50.618;10.642;2023-02-10T14:07:58;98529.56;;;14.95;22.24
64064;BME280;50314;50.618;10.642;2023-02-10T14:13:18;98520.97;;;14.91;22.22
64064;BME280;50314;50.618;10.642;2023-02-10T14:15:56;98520.19;;;14.89;22.03
64064;BME280;50314;50.618;10.642;2023-02-10T14:18:36;98511.19;;;14.92;22.07
64064;BME280;50314;50.618;10.642;2023-02-10T14:21:11;98516.69;;;14.89;22.31
64064;BME280;50314;50.618;10.642;2023-02-10T14:23:39;98522.75;;;14.91;22.30
64064;BME280;50314;50.618;10.642;2023-02-10T14:26:12;98512.22;;;14.89;22.27
64064;BME280;50314;50.618;10.642;2023-02-10T14:28:40;98520.13;;;14.91;22.15
64064;BME280;50314;50.618;10.642;2023-02-10T14:31:28;98524.00;;;14.85;22.31
64064;BME280;50314;50.618;10.642;2023-02-10T14:33:59;98518.41;;;14.90;22.24
64064;BME280;50314;50.618;10.642;2023-02-10T14:36:26;98514.88;;;14.89;22.31
64064;BME280;50314;50.618;10.642;2023-02-10T14:38:57;98513.31;;;14.87;22.08
64064;BME280;50314;50.618;10.642;2023-02-10T14:41:24;98511.50;;;14.87;22.42
64064;BME280;50314;50.618;10.642;2023-02-10T14:43:51;98504.50;;;14.86;22.17
64064;BME280;50314;50.618;10.642;2023-02-10T14:46:29;98506.56;;;14.81;22.03
64064;BME280;50314;50.618;10.642;2023-02-10T14:49:07;98500.41;;;14.80;22.03
64064;BME280;50314;50.618;10.642;2023-02-10T14:51:39;98509.22;;;14.81;22.43
64064;BME280;50314;50.618;10.642;2023-02-10T14:54:18;98502.22;;;14.80;22.19
64064;BME280;50314;50.618;10.642;2023-02-10T14:56:59;98506.88;;;14.76;22.10
64064;BME280;50314;50.618;10.642;2023-02-10T14:59:28;98500.50;;;14.79;22.46
64064;BME280;50314;50.618;10.642;2023-02-10T15:02:04;98500.78;;;14.74;22.28